sensor_id;sensor_type;location;lat;lon;timestamp;P1;durP1;ratioP1;P2;durP2;ratioP2
38779;SDS011;29273;49.962;9.768;2023-03-26T00:01:41;1.20;;;0.50;;
38779;SDS011;29273;49.962;9.768;2023-03-26T00:04:10;1.75;;;0.68;;
38779;SDS011;29273;49.962;9.768;2023-03-26T00:06:36;3.30;;;0.50;;
38779;SDS011;29273;49.962;9.768;2023-03-26T00:09:07;2.15;;;0.68;;
38779;SDS011;29273;49.962;9.768;2023-03-26T00:11:34;2.60;;;0.80;;
38779;SDS011;29273;49.962;9.768;2023-03-26T00:13:59;1.50;;;0.60;;
38779;SDS011;29273;49.962;9.768;2023-03-26T00:16:28;1.23;;;0.90;;
38779;SDS011;29273;49.962;9.768;2023-03-26T00:18:55;1.42;;;0.70;;
38779;SDS011;29273;49.962;9.768;2023-03-26T00:21:22;2.05;;;0.82;;
38779;SDS011;29273;49.962;9.768;2023-03-26T00:23:59;2.58;;;0.73;;
38779;SDS011;29273;49.962;9.768;2023-03-26T00:26:28;1.27;;;0.60;;
38779;SDS011;29273;49.962;9.768;2023-03-26T00:28:55;2.45;;;0.70;;
38779;SDS011;29273;49.962;9.768;2023-03-26T00:31:22;0.93;;;0.60;;
38779;SDS011;29273;49.962;9.768;2023-03-26T00:33:49;2.35;;;0.60;;
38779;SDS011;29273;49.962;9.768;2023-03-26T00:36:19;1.75;;;0.50;;
38779;SDS011;29273;49.962;9.768;2023-03-26T00:38:44;1.70;;;0.70;;
38779;SDS011;29273;49.962;9.768;2023-03-26T00:41:13;3.08;;;0.88;;
38779;SDS011;29273;49.962;9.768;2023-03-26T00:44:01;1.75;;;0.82;;
38779;SDS011;29273;49.962;9.768;2023-03-26T00:46:27;1.98;;;0.88;;
38779;SDS011;29273;49.962;9.768;2023-03-26T00:48:54;1.83;;;0.73;;
38779;SDS011;29273;49.962;9.768;2023-03-26T00:51:23;1.83;;;0.70;;
38779;SDS011;29273;49.962;9.768;2023-03-26T00:53:50;3.22;;;1.00;;
38779;SDS011;29273;49.962;9.768;2023-03-26T00:56:16;2.33;;;0.73;;
38779;SDS011;29273;49.962;9.768;2023-03-26T00:58:42;2.10;;;0.77;;
38779;SDS011;29273;49.962;9.768;2023-03-26T01:01:09;1.48;;;0.90;;
38779;SDS011;29273;49.962;9.768;2023-03-26T01:03:41;4.18;;;0.90;;
38779;SDS011;29273;49.962;9.768;2023-03-26T01:06:11;1.65;;;0.65;;
38779;SDS011;29273;49.962;9.768;2023-03-26T01:08:44;1.52;;;0.60;;
38779;SDS011;29273;49.962;9.768;2023-03-26T01:11:13;2.67;;;0.82;;
38779;SDS011;29273;49.962;9.768;2023-03-26T01:14:01;1.55;;;0.73;;
38779;SDS011;29273;49.962;9.768;2023-03-26T01:16:44;1.35;;;0.85;;
38779;SDS011;29273;49.962;9.768;2023-03-26T01:19:18;2.45;;;0.85;;
38779;SDS011;29273;49.962;9.768;2023-03-26T01:21:50;2.78;;;0.77;;
38779;SDS011;29273;49.962;9.768;2023-03-26T01:24:15;2.92;;;0.75;;
38779;SDS011;29273;49.962;9.768;2023-03-26T01:26:50;1.65;;;0.73;;
38779;SDS011;29273;49.962;9.768;2023-03-26T01:29:31;2.38;;;0.95;;
38779;SDS011;29273;49.962;9.768;2023-03-26T01:35:13;3.13;;;1.10;;
38779;SDS011;29273;49.962;9.768;2023-03-26T01:37:52;5.15;;;1.65;;
38779;SDS011;29273;49.962;9.768;2023-03-26T01:40:43;3.03;;;1.23;;
38779;SDS011;29273;49.962;9.768;2023-03-26T01:43:20;4.00;;;1.35;;
38779;SDS011;29273;49.962;9.768;2023-03-26T01:45:48;3.60;;;1.42;;
38779;SDS011;29273;49.962;9.768;2023-03-26T01:48:15;4.25;;;1.20;;
38779;SDS011;29273;49.962;9.768;2023-03-26T01:50:41;3.58;;;1.23;;
38779;SDS011;29273;49.962;9.768;2023-03-26T01:53:07;4.68;;;1.20;;
38779;SDS011;29273;49.962;9.768;2023-03-26T01:55:40;6.05;;;1.10;;
38779;SDS011;29273;49.962;9.768;2023-03-26T01:58:23;3.67;;;0.88;;
38779;SDS011;29273;49.962;9.768;2023-03-26T02:01:02;1.98;;;0.80;;
38779;SDS011;29273;49.962;9.768;2023-03-26T02:03:34;3.83;;;0.82;;
38779;SDS011;29273;49.962;9.768;2023-03-26T02:06:25;2.35;;;0.80;;
38779;SDS011;29273;49.962;9.768;2023-03-26T02:09:02;2.97;;;0.98;;
38779;SDS011;29273;49.962;9.768;2023-03-26T02:11:38;4.22;;;1.08;;
38779;SDS011;29273;49.962;9.768;2023-03-26T02:14:06;3.03;;;1.00;;
38779;SDS011;29273;49.962;9.768;2023-03-26T02:16:32;2.65;;;0.90;;
38779;SDS011;29273;49.962;9.768;2023-03-26T02:18:58;2.45;;;0.80;;
38779;SDS011;29273;49.962;9.768;2023-03-26T02:21:25;2.15;;;0.70;;
38779;SDS011;29273;49.962;9.768;2023-03-26T02:23:53;2.03;;;1.08;;
38779;SDS011;29273;49.962;9.768;2023-03-26T02:26:29;2.33;;;1.10;;
38779;SDS011;29273;49.962;9.768;2023-03-26T02:29:04;3.60;;;0.90;;
38779;SDS011;29273;49.962;9.768;2023-03-26T02:31:30;3.00;;;0.77;;
38779;SDS011;29273;49.962;9.768;2023-03-26T02:33:56;1.98;;;0.65;;
38779;SDS011;29273;49.962;9.768;2023-03-26T02:36:23;3.75;;;0.70;;
38779;SDS011;29273;49.962;9.768;2023-03-26T02:38:55;2.70;;;0.80;;
38779;SDS011;29273;49.962;9.768;2023-03-26T02:41:22;2.63;;;0.60;;
38779;SDS011;29273;49.962;9.768;2023-03-26T02:44:00;3.05;;;0.80;;
38779;SDS011;29273;49.962;9.768;2023-03-26T02:46:44;3.45;;;0.65;;
38779;SDS011;29273;49.962;9.768;2023-03-26T02:49:30;1.98;;;0.65;;
38779;SDS011;29273;49.962;9.768;2023-03-26T02:51:55;2.22;;;1.00;;
38779;SDS011;29273;49.962;9.768;2023-03-26T02:54:24;3.22;;;0.80;;
38779;SDS011;29273;49.962;9.768;2023-03-26T02:57:00;3.53;;;0.95;;
38779;SDS011;29273;49.962;9.768;2023-03-26T02:59:52;1.45;;;1.00;;
38779;SDS011;29273;49.962;9.768;2023-03-26T03:02:35;2.50;;;0.77;;
38779;SDS011;29273;49.962;9.768;2023-03-26T03:05:23;1.80;;;0.60;;
38779;SDS011;29273;49.962;9.768;2023-03-26T03:07:57;2.22;;;1.00;;
38779;SDS011;29273;49.962;9.768;2023-03-26T03:10:25;1.55;;;0.70;;
38779;SDS011;29273;49.962;9.768;2023-03-26T03:13:03;1.75;;;0.75;;
38779;SDS011;29273;49.962;9.768;2023-03-26T03:15:32;2.88;;;0.60;;
38779;SDS011;29273;49.962;9.768;2023-03-26T03:17:57;2.08;;;0.65;;
38779;SDS011;29273;49.962;9.768;2023-03-26T03:20:26;2.33;;;0.73;;
38779;SDS011;29273;49.962;9.768;2023-03-26T03:22:51;3.25;;;0.70;;
38779;SDS011;29273;49.962;9.768;2023-03-26T03:25:17;2.67;;;1.13;;
38779;SDS011;29273;49.962;9.768;2023-03-26T03:27:44;2.20;;;0.75;;
38779;SDS011;29273;49.962;9.768;2023-03-26T03:30:11;1.90;;;0.80;;
38779;SDS011;29273;49.962;9.768;2023-03-26T03:32:43;2.05;;;0.73;;
38779;SDS011;29273;49.962;9.768;2023-03-26T03:35:09;1.58;;;0.73;;
38779;SDS011;29273;49.962;9.768;2023-03-26T03:37:35;2.60;;;0.77;;
38779;SDS011;29273;49.962;9.768;2023-03-26T03:40:01;1.02;;;0.65;;
38779;SDS011;29273;49.962;9.768;2023-03-26T03:42:33;2.03;;;0.70;;
38779;SDS011;29273;49.962;9.768;2023-03-26T03:45:01;2.72;;;0.93;;
38779;SDS011;29273;49.962;9.768;2023-03-26T03:47:46;3.67;;;1.10;;
38779;SDS011;29273;49.962;9.768;2023-03-26T03:50:14;2.65;;;0.80;;
38779;SDS011;29273;49.962;9.768;2023-03-26T03:52:52;2.45;;;0.98;;
38779;SDS011;29273;49.962;9.768;2023-03-26T03:55:18;2.08;;;0.80;;
38779;SDS011;29273;49.962;9.768;2023-03-26T03:57:48;3.33;;;1.10;;
38779;SDS011;29273;49.962;9.768;2023-03-26T04:00:18;2.60;;;0.80;;
38779;SDS011;29273;49.962;9.768;2023-03-26T04:02:57;1.90;;;0.80;;
38779;SDS011;29273;49.962;9.768;2023-03-26T04:05:25;2.13;;;0.93;;
38779;SDS011;29273;49.962;9.768;2023-03-26T04:07:51;1.77;;;0.70;;
38779;SDS011;29273;49.962;9.768;2023-03-26T04:10:22;1.93;;;0.87;;
38779;SDS011;29273;49.962;9.768;2023-03-26T04:13:07;2.47;;;0.90;;
38779;SDS011;29273;49.962;9.768;2023-03-26T04:16:03;2.22;;;0.95;;
38779;SDS011;29273;49.962;9.768;2023-03-26T04:18:28;2.35;;;0.90;;
38779;SDS011;29273;49.962;9.768;2023-03-26T04:21:00;1.50;;;0.80;;
38779;SDS011;29273;49.962;9.768;2023-03-26T04:23:28;1.52;;;0.80;;
38779;SDS011;29273;49.962;9.768;2023-03-26T04:26:03;1.63;;;0.80;;
38779;SDS011;29273;49.962;9.768;2023-03-26T04:28:51;1.75;;;0.77;;
38779;SDS011;29273;49.962;9.768;2023-03-26T04:31:24;0.85;;;0.68;;
38779;SDS011;29273;49.962;9.768;2023-03-26T04:33:55;1.43;;;0.70;;
38779;SDS011;29273;49.962;9.768;2023-03-26T04:36:30;2.30;;;0.88;;
38779;SDS011;29273;49.962;9.768;2023-03-26T04:38:58;3.08;;;1.05;;
38779;SDS011;29273;49.962;9.768;2023-03-26T04:41:47;2.72;;;1.08;;
38779;SDS011;29273;49.962;9.768;2023-03-26T04:44:16;2.05;;;0.73;;
38779;SDS011;29273;49.962;9.768;2023-03-26T04:46:52;1.77;;;0.80;;
38779;SDS011;29273;49.962;9.768;2023-03-26T04:49:25;4.15;;;0.90;;
38779;SDS011;29273;49.962;9.768;2023-03-26T04:51:51;2.13;;;0.75;;
38779;SDS011;29273;49.962;9.768;2023-03-26T04:54:49;3.17;;;0.95;;
38779;SDS011;29273;49.962;9.768;2023-03-26T04:57:21;1.63;;;0.90;;
38779;SDS011;29273;49.962;9.768;2023-03-26T04:59:57;3.30;;;0.68;;
38779;SDS011;29273;49.962;9.768;2023-03-26T05:02:23;1.73;;;0.73;;
38779;SDS011;29273;49.962;9.768;2023-03-26T05:04:52;3.38;;;1.15;;
38779;SDS011;29273;49.962;9.768;2023-03-26T05:07:19;1.75;;;0.60;;
38779;SDS011;29273;49.962;9.768;2023-03-26T05:09:51;2.05;;;0.77;;
38779;SDS011;29273;49.962;9.768;2023-03-26T05:12:35;2.22;;;0.93;;
38779;SDS011;29273;49.962;9.768;2023-03-26T05:15:05;1.50;;;0.65;;
38779;SDS011;29273;49.962;9.768;2023-03-26T05:17:56;1.88;;;0.80;;
38779;SDS011;29273;49.962;9.768;2023-03-26T05:20:43;1.45;;;0.60;;
38779;SDS011;29273;49.962;9.768;2023-03-26T05:23:08;2.15;;;0.73;;
38779;SDS011;29273;49.962;9.768;2023-03-26T05:25:37;1.70;;;0.68;;
38779;SDS011;29273;49.962;9.768;2023-03-26T05:28:10;1.92;;;0.73;;
38779;SDS011;29273;49.962;9.768;2023-03-26T05:30:54;2.15;;;0.75;;
38779;SDS011;29273;49.962;9.768;2023-03-26T05:33:21;1.40;;;0.65;;
38779;SDS011;29273;49.962;9.768;2023-03-26T05:35:59;2.17;;;0.80;;
38779;SDS011;29273;49.962;9.768;2023-03-26T05:38:27;1.70;;;0.90;;
38779;SDS011;29273;49.962;9.768;2023-03-26T05:41:01;1.83;;;0.60;;
38779;SDS011;29273;49.962;9.768;2023-03-26T05:43:32;2.63;;;0.88;;
38779;SDS011;29273;49.962;9.768;2023-03-26T05:46:05;2.58;;;0.80;;
38779;SDS011;29273;49.962;9.768;2023-03-26T05:48:31;1.92;;;1.10;;
38779;SDS011;29273;49.962;9.768;2023-03-26T05:50:57;1.30;;;0.73;;
38779;SDS011;29273;49.962;9.768;2023-03-26T05:53:25;1.15;;;0.77;;
38779;SDS011;29273;49.962;9.768;2023-03-26T05:56:23;1.75;;;0.85;;
38779;SDS011;29273;49.962;9.768;2023-03-26T05:59:07;2.58;;;0.80;;
38779;SDS011;29273;49.962;9.768;2023-03-26T06:01:42;1.52;;;0.68;;
38779;SDS011;29273;49.962;9.768;2023-03-26T06:04:15;2.22;;;0.73;;
38779;SDS011;29273;49.962;9.768;2023-03-26T06:06:50;2.30;;;1.13;;
38779;SDS011;29273;49.962;9.768;2023-03-26T06:09:16;1.85;;;0.80;;
38779;SDS011;29273;49.962;9.768;2023-03-26T06:11:43;2.28;;;0.93;;
38779;SDS011;29273;49.962;9.768;2023-03-26T06:14:08;4.13;;;1.10;;
38779;SDS011;29273;49.962;9.768;2023-03-26T06:16:37;2.67;;;1.20;;
38779;SDS011;29273;49.962;9.768;2023-03-26T06:19:21;2.30;;;1.00;;
38779;SDS011;29273;49.962;9.768;2023-03-26T06:21:49;1.80;;;1.00;;
38779;SDS011;29273;49.962;9.768;2023-03-26T06:24:21;1.50;;;0.73;;
38779;SDS011;29273;49.962;9.768;2023-03-26T06:26:59;1.25;;;0.80;;
38779;SDS011;29273;49.962;9.768;2023-03-26T06:30:00;4.30;;;1.27;;
38779;SDS011;29273;49.962;9.768;2023-03-26T06:32:36;3.25;;;1.65;;
38779;SDS011;29273;49.962;9.768;2023-03-26T06:35:06;4.05;;;1.80;;
38779;SDS011;29273;49.962;9.768;2023-03-26T06:37:33;3.00;;;1.27;;
38779;SDS011;29273;49.962;9.768;2023-03-26T06:40:00;2.35;;;1.20;;
38779;SDS011;29273;49.962;9.768;2023-03-26T06:43:01;2.30;;;1.00;;
38779;SDS011;29273;49.962;9.768;2023-03-26T06:45:39;2.63;;;1.00;;
38779;SDS011;29273;49.962;9.768;2023-03-26T06:48:23;2.15;;;1.10;;
38779;SDS011;29273;49.962;9.768;2023-03-26T06:51:09;2.30;;;0.93;;
38779;SDS011;29273;49.962;9.768;2023-03-26T06:53:53;1.55;;;0.80;;
38779;SDS011;29273;49.962;9.768;2023-03-26T06:56:45;1.77;;;0.80;;
38779;SDS011;29273;49.962;9.768;2023-03-26T06:59:29;2.38;;;0.80;;
38779;SDS011;29273;49.962;9.768;2023-03-26T07:02:14;2.28;;;0.90;;
38779;SDS011;29273;49.962;9.768;2023-03-26T07:04:58;1.70;;;0.95;;
38779;SDS011;29273;49.962;9.768;2023-03-26T07:07:42;2.20;;;0.95;;
38779;SDS011;29273;49.962;9.768;2023-03-26T07:10:19;2.55;;;1.15;;
38779;SDS011;29273;49.962;9.768;2023-03-26T07:13:00;2.38;;;0.95;;
38779;SDS011;29273;49.962;9.768;2023-03-26T07:15:48;2.72;;;1.10;;
38779;SDS011;29273;49.962;9.768;2023-03-26T07:18:27;6.13;;;1.30;;
38779;SDS011;29273;49.962;9.768;2023-03-26T07:20:53;2.17;;;1.02;;
38779;SDS011;29273;49.962;9.768;2023-03-26T07:23:20;1.45;;;1.05;;
38779;SDS011;29273;49.962;9.768;2023-03-26T07:25:56;2.63;;;0.95;;
38779;SDS011;29273;49.962;9.768;2023-03-26T07:28:39;2.55;;;1.13;;
38779;SDS011;29273;49.962;9.768;2023-03-26T07:31:38;1.90;;;0.93;;
38779;SDS011;29273;49.962;9.768;2023-03-26T07:37:55;2.95;;;0.88;;
38779;SDS011;29273;49.962;9.768;2023-03-26T07:46:35;1.38;;;0.75;;
38779;SDS011;29273;49.962;9.768;2023-03-26T07:49:17;2.97;;;1.08;;
38779;SDS011;29273;49.962;9.768;2023-03-26T07:52:02;5.78;;;1.27;;
38779;SDS011;29273;49.962;9.768;2023-03-26T07:54:48;1.42;;;0.70;;
38779;SDS011;29273;49.962;9.768;2023-03-26T08:00:20;1.50;;;0.80;;
38779;SDS011;29273;49.962;9.768;2023-03-26T08:06:03;2.03;;;0.77;;
38779;SDS011;29273;49.962;9.768;2023-03-26T08:12:15;2.30;;;0.98;;
38779;SDS011;29273;49.962;9.768;2023-03-26T08:14:50;1.83;;;0.90;;
38779;SDS011;29273;49.962;9.768;2023-03-26T08:17:29;3.00;;;1.08;;
38779;SDS011;29273;49.962;9.768;2023-03-26T08:20:21;2.25;;;1.20;;
38779;SDS011;29273;49.962;9.768;2023-03-26T08:25:42;2.22;;;0.93;;
38779;SDS011;29273;49.962;9.768;2023-03-26T08:30:59;2.72;;;1.00;;
38779;SDS011;29273;49.962;9.768;2023-03-26T08:33:27;1.63;;;0.90;;
38779;SDS011;29273;49.962;9.768;2023-03-26T08:35:52;2.15;;;1.00;;
38779;SDS011;29273;49.962;9.768;2023-03-26T08:38:18;2.30;;;1.15;;
38779;SDS011;29273;49.962;9.768;2023-03-26T09:05:34;1.95;;;0.75;;
38779;SDS011;29273;49.962;9.768;2023-03-26T09:11:08;1.73;;;0.80;;
38779;SDS011;29273;49.962;9.768;2023-03-26T09:13:41;1.65;;;0.93;;
38779;SDS011;29273;49.962;9.768;2023-03-26T09:16:16;1.85;;;0.70;;
38779;SDS011;29273;49.962;9.768;2023-03-26T09:18:55;2.35;;;0.88;;
38779;SDS011;29273;49.962;9.768;2023-03-26T09:37:53;5.28;;;1.63;;
38779;SDS011;29273;49.962;9.768;2023-03-26T09:41:07;2.67;;;1.27;;
38779;SDS011;29273;49.962;9.768;2023-03-26T09:43:28;3.22;;;1.23;;
38779;SDS011;29273;49.962;9.768;2023-03-26T09:51:40;2.55;;;1.10;;
38779;SDS011;29273;49.962;9.768;2023-03-26T09:54:41;2.90;;;1.00;;
38779;SDS011;29273;49.962;9.768;2023-03-26T10:00:12;1.42;;;0.88;;
38779;SDS011;29273;49.962;9.768;2023-03-26T10:03:07;1.92;;;0.80;;
38779;SDS011;29273;49.962;9.768;2023-03-26T10:10:53;2.55;;;0.80;;
38779;SDS011;29273;49.962;9.768;2023-03-26T10:13:27;2.35;;;0.95;;
38779;SDS011;29273;49.962;9.768;2023-03-26T10:24:16;2.83;;;1.10;;
38779;SDS011;29273;49.962;9.768;2023-03-26T10:26:55;1.73;;;1.00;;
38779;SDS011;29273;49.962;9.768;2023-03-26T10:29:36;1.77;;;1.08;;
38779;SDS011;29273;49.962;9.768;2023-03-26T10:32:28;3.63;;;1.20;;
38779;SDS011;29273;49.962;9.768;2023-03-26T10:37:37;2.50;;;1.10;;
38779;SDS011;29273;49.962;9.768;2023-03-26T10:40:18;2.72;;;1.10;;
38779;SDS011;29273;49.962;9.768;2023-03-26T10:43:04;2.00;;;1.10;;
38779;SDS011;29273;49.962;9.768;2023-03-26T10:48:53;1.48;;;0.80;;
38779;SDS011;29273;49.962;9.768;2023-03-26T10:57:13;1.58;;;0.80;;
38779;SDS011;29273;49.962;9.768;2023-03-26T10:59:42;2.85;;;0.93;;
38779;SDS011;29273;49.962;9.768;2023-03-26T11:07:54;2.25;;;0.75;;
38779;SDS011;29273;49.962;9.768;2023-03-26T11:10:35;2.90;;;1.10;;
38779;SDS011;29273;49.962;9.768;2023-03-26T11:13:16;3.72;;;1.05;;
38779;SDS011;29273;49.962;9.768;2023-03-26T11:16:12;2.13;;;1.05;;
38779;SDS011;29273;49.962;9.768;2023-03-26T11:21:31;1.80;;;0.70;;
38779;SDS011;29273;49.962;9.768;2023-03-26T11:24:14;1.50;;;0.70;;
38779;SDS011;29273;49.962;9.768;2023-03-26T11:26:59;1.42;;;0.70;;
38779;SDS011;29273;49.962;9.768;2023-03-26T11:32:41;0.80;;;0.60;;
38779;SDS011;29273;49.962;9.768;2023-03-26T11:38:03;1.50;;;0.70;;
38779;SDS011;29273;49.962;9.768;2023-03-26T11:40:33;1.48;;;0.65;;
38779;SDS011;29273;49.962;9.768;2023-03-26T11:43:06;1.15;;;0.70;;
38779;SDS011;29273;49.962;9.768;2023-03-26T11:45:40;1.17;;;0.80;;
38779;SDS011;29273;49.962;9.768;2023-03-26T11:50:46;1.85;;;0.90;;
38779;SDS011;29273;49.962;9.768;2023-03-26T11:53:16;0.75;;;0.60;;
38779;SDS011;29273;49.962;9.768;2023-03-26T11:56:07;0.90;;;0.50;;
38779;SDS011;29273;49.962;9.768;2023-03-26T11:58:42;1.10;;;0.50;;
38779;SDS011;29273;49.962;9.768;2023-03-26T12:01:16;2.72;;;0.50;;
38779;SDS011;29273;49.962;9.768;2023-03-26T12:04:03;2.08;;;0.70;;
38779;SDS011;29273;49.962;9.768;2023-03-26T12:06:35;1.00;;;0.52;;
38779;SDS011;29273;49.962;9.768;2023-03-26T12:09:01;1.77;;;0.68;;
38779;SDS011;29273;49.962;9.768;2023-03-26T12:11:27;1.75;;;0.80;;
38779;SDS011;29273;49.962;9.768;2023-03-26T12:14:03;0.93;;;0.60;;
38779;SDS011;29273;49.962;9.768;2023-03-26T12:16:29;2.00;;;1.20;;
38779;SDS011;29273;49.962;9.768;2023-03-26T12:19:00;1.70;;;0.52;;
38779;SDS011;29273;49.962;9.768;2023-03-26T12:21:30;0.90;;;0.50;;
38779;SDS011;29273;49.962;9.768;2023-03-26T12:24:33;2.58;;;0.63;;
38779;SDS011;29273;49.962;9.768;2023-03-26T12:27:01;1.05;;;0.70;;
38779;SDS011;29273;49.962;9.768;2023-03-26T12:29:51;2.10;;;0.70;;
38779;SDS011;29273;49.962;9.768;2023-03-26T12:32:24;0.73;;;0.38;;
38779;SDS011;29273;49.962;9.768;2023-03-26T12:34:56;0.88;;;0.52;;
38779;SDS011;29273;49.962;9.768;2023-03-26T12:37:33;0.82;;;0.60;;
38779;SDS011;29273;49.962;9.768;2023-03-26T12:40:25;0.90;;;0.50;;
38779;SDS011;29273;49.962;9.768;2023-03-26T12:42:57;1.65;;;0.50;;
38779;SDS011;29273;49.962;9.768;2023-03-26T12:45:29;0.80;;;0.50;;
38779;SDS011;29273;49.962;9.768;2023-03-26T12:48:01;2.47;;;0.75;;
38779;SDS011;29273;49.962;9.768;2023-03-26T12:50:28;2.00;;;0.60;;
38779;SDS011;29273;49.962;9.768;2023-03-26T12:53:01;1.75;;;0.73;;
38779;SDS011;29273;49.962;9.768;2023-03-26T12:55:59;1.05;;;0.57;;
38779;SDS011;29273;49.962;9.768;2023-03-26T13:12:54;1.60;;;0.80;;
38779;SDS011;29273;49.962;9.768;2023-03-26T13:15:31;1.48;;;0.70;;
38779;SDS011;29273;49.962;9.768;2023-03-26T13:18:15;2.25;;;0.85;;
38779;SDS011;29273;49.962;9.768;2023-03-26T13:20:54;1.58;;;0.90;;
38779;SDS011;29273;49.962;9.768;2023-03-26T13:26:50;0.90;;;0.65;;
38779;SDS011;29273;49.962;9.768;2023-03-26T13:29:39;1.75;;;0.60;;
38779;SDS011;29273;49.962;9.768;2023-03-26T13:32:27;0.55;;;0.50;;
38779;SDS011;29273;49.962;9.768;2023-03-26T13:37:33;1.83;;;0.70;;
38779;SDS011;29273;49.962;9.768;2023-03-26T13:48:41;1.30;;;0.50;;
38779;SDS011;29273;49.962;9.768;2023-03-26T13:51:17;0.77;;;0.65;;
38779;SDS011;29273;49.962;9.768;2023-03-26T13:53:46;1.83;;;0.68;;
38779;SDS011;29273;49.962;9.768;2023-03-26T13:56:24;1.35;;;0.68;;
38779;SDS011;29273;49.962;9.768;2023-03-26T13:59:18;3.33;;;0.55;;
38779;SDS011;29273;49.962;9.768;2023-03-26T14:01:45;0.65;;;0.43;;
38779;SDS011;29273;49.962;9.768;2023-03-26T14:09:53;1.17;;;0.40;;
38779;SDS011;29273;49.962;9.768;2023-03-26T14:15:29;0.47;;;0.40;;
38779;SDS011;29273;49.962;9.768;2023-03-26T14:26:48;0.30;;;0.30;;
38779;SDS011;29273;49.962;9.768;2023-03-26T14:29:24;0.30;;;0.30;;
38779;SDS011;29273;49.962;9.768;2023-03-26T14:34:44;0.52;;;0.35;;
38779;SDS011;29273;49.962;9.768;2023-03-26T14:37:22;2.35;;;0.40;;
38779;SDS011;29273;49.962;9.768;2023-03-26T14:40:23;0.30;;;0.30;;
38779;SDS011;29273;49.962;9.768;2023-03-26T14:42:56;0.35;;;0.35;;
38779;SDS011;29273;49.962;9.768;2023-03-26T14:54:12;0.40;;;0.40;;
38779;SDS011;29273;49.962;9.768;2023-03-26T15:02:59;0.85;;;0.55;;
38779;SDS011;29273;49.962;9.768;2023-03-26T15:09:05;0.70;;;0.40;;
38779;SDS011;29273;49.962;9.768;2023-03-26T15:32:23;0.55;;;0.50;;
38779;SDS011;29273;49.962;9.768;2023-03-26T15:44:00;0.55;;;0.55;;
38779;SDS011;29273;49.962;9.768;2023-03-26T15:51:57;2.42;;;0.68;;
38779;SDS011;29273;49.962;9.768;2023-03-26T15:55:00;1.13;;;0.57;;
38779;SDS011;29273;49.962;9.768;2023-03-26T16:01:03;0.57;;;0.40;;
38779;SDS011;29273;49.962;9.768;2023-03-26T16:03:50;0.73;;;0.40;;
38779;SDS011;29273;49.962;9.768;2023-03-26T16:06:29;0.43;;;0.35;;
38779;SDS011;29273;49.962;9.768;2023-03-26T16:14:46;0.57;;;0.40;;
38779;SDS011;29273;49.962;9.768;2023-03-26T16:18:03;0.85;;;0.40;;
38779;SDS011;29273;49.962;9.768;2023-03-26T16:20:49;1.17;;;0.50;;
38779;SDS011;29273;49.962;9.768;2023-03-26T16:23:20;1.40;;;0.60;;
38779;SDS011;29273;49.962;9.768;2023-03-26T16:28:36;0.70;;;0.50;;
38779;SDS011;29273;49.962;9.768;2023-03-26T16:31:25;1.13;;;0.60;;
38779;SDS011;29273;49.962;9.768;2023-03-26T16:41:30;1.33;;;0.50;;
38779;SDS011;29273;49.962;9.768;2023-03-26T16:44:01;1.70;;;0.68;;
38779;SDS011;29273;49.962;9.768;2023-03-26T16:46:36;2.88;;;0.68;;
38779;SDS011;29273;49.962;9.768;2023-03-26T16:55:21;1.80;;;0.65;;
38779;SDS011;29273;49.962;9.768;2023-03-26T16:58:02;1.35;;;0.65;;
38779;SDS011;29273;49.962;9.768;2023-03-26T17:00:33;1.50;;;0.70;;
38779;SDS011;29273;49.962;9.768;2023-03-26T17:19:34;1.50;;;0.60;;
38779;SDS011;29273;49.962;9.768;2023-03-26T17:22:10;1.83;;;0.50;;
38779;SDS011;29273;49.962;9.768;2023-03-26T17:24:49;1.40;;;0.70;;
38779;SDS011;29273;49.962;9.768;2023-03-26T17:30:53;1.23;;;0.50;;
38779;SDS011;29273;49.962;9.768;2023-03-26T17:33:32;0.80;;;0.30;;
38779;SDS011;29273;49.962;9.768;2023-03-26T17:41:01;0.30;;;0.30;;
38779;SDS011;29273;49.962;9.768;2023-03-26T17:45:59;0.28;;;0.20;;
38779;SDS011;29273;49.962;9.768;2023-03-26T17:48:27;0.40;;;0.30;;
38779;SDS011;29273;49.962;9.768;2023-03-26T17:53:28;0.30;;;0.30;;
38779;SDS011;29273;49.962;9.768;2023-03-26T17:55:56;0.30;;;0.20;;
38779;SDS011;29273;49.962;9.768;2023-03-26T17:58:43;0.40;;;0.30;;
38779;SDS011;29273;49.962;9.768;2023-03-26T18:04:12;0.30;;;0.30;;
38779;SDS011;29273;49.962;9.768;2023-03-26T18:12:36;0.30;;;0.30;;
38779;SDS011;29273;49.962;9.768;2023-03-26T18:15:24;0.85;;;0.30;;
38779;SDS011;29273;49.962;9.768;2023-03-26T18:17:55;0.40;;;0.38;;
38779;SDS011;29273;49.962;9.768;2023-03-26T18:20:32;0.30;;;0.30;;
38779;SDS011;29273;49.962;9.768;2023-03-26T18:23:07;0.40;;;0.30;;
38779;SDS011;29273;49.962;9.768;2023-03-26T18:25:34;0.30;;;0.30;;
38779;SDS011;29273;49.962;9.768;2023-03-26T18:28:00;0.20;;;0.20;;
38779;SDS011;29273;49.962;9.768;2023-03-26T18:30:27;0.30;;;0.30;;
38779;SDS011;29273;49.962;9.768;2023-03-26T18:32:58;0.30;;;0.30;;
38779;SDS011;29273;49.962;9.768;2023-03-26T18:35:41;0.95;;;0.40;;
38779;SDS011;29273;49.962;9.768;2023-03-26T18:38:19;0.47;;;0.30;;
38779;SDS011;29273;49.962;9.768;2023-03-26T18:40:47;0.45;;;0.45;;
38779;SDS011;29273;49.962;9.768;2023-03-26T18:43:18;0.47;;;0.20;;
38779;SDS011;29273;49.962;9.768;2023-03-26T18:45:47;0.25;;;0.25;;
38779;SDS011;29273;49.962;9.768;2023-03-26T18:48:17;0.30;;;0.30;;
38779;SDS011;29273;49.962;9.768;2023-03-26T18:50:52;0.30;;;0.30;;
38779;SDS011;29273;49.962;9.768;2023-03-26T18:53:21;0.35;;;0.30;;
38779;SDS011;29273;49.962;9.768;2023-03-26T18:55:49;1.55;;;0.70;;
38779;SDS011;29273;49.962;9.768;2023-03-26T19:00:54;0.65;;;0.35;;
38779;SDS011;29273;49.962;9.768;2023-03-26T19:03:22;0.20;;;0.20;;
38779;SDS011;29273;49.962;9.768;2023-03-26T19:05:49;0.30;;;0.30;;
38779;SDS011;29273;49.962;9.768;2023-03-26T19:08:17;1.13;;;0.57;;
38779;SDS011;29273;49.962;9.768;2023-03-26T19:10:44;1.15;;;0.50;;
38779;SDS011;29273;49.962;9.768;2023-03-26T19:13:15;1.05;;;0.50;;
38779;SDS011;29273;49.962;9.768;2023-03-26T19:15:41;0.90;;;0.60;;
38779;SDS011;29273;49.962;9.768;2023-03-26T19:18:15;1.17;;;0.80;;
38779;SDS011;29273;49.962;9.768;2023-03-26T19:20:47;0.60;;;0.60;;
38779;SDS011;29273;49.962;9.768;2023-03-26T19:23:16;1.80;;;0.68;;
38779;SDS011;29273;49.962;9.768;2023-03-26T19:25:56;1.02;;;0.63;;
38779;SDS011;29273;49.962;9.768;2023-03-26T19:28:25;0.75;;;0.63;;
38779;SDS011;29273;49.962;9.768;2023-03-26T19:30:53;1.20;;;0.60;;
38779;SDS011;29273;49.962;9.768;2023-03-26T19:33:22;0.65;;;0.55;;
38779;SDS011;29273;49.962;9.768;2023-03-26T19:35:53;0.98;;;0.65;;
38779;SDS011;29273;49.962;9.768;2023-03-26T19:38:28;0.80;;;0.50;;
38779;SDS011;29273;49.962;9.768;2023-03-26T19:41:02;0.77;;;0.57;;
38779;SDS011;29273;49.962;9.768;2023-03-26T19:43:28;1.92;;;0.52;;
38779;SDS011;29273;49.962;9.768;2023-03-26T19:45:54;0.65;;;0.57;;
38779;SDS011;29273;49.962;9.768;2023-03-26T19:48:23;0.50;;;0.50;;
38779;SDS011;29273;49.962;9.768;2023-03-26T19:50:54;0.77;;;0.50;;
38779;SDS011;29273;49.962;9.768;2023-03-26T19:53:29;1.13;;;0.60;;
38779;SDS011;29273;49.962;9.768;2023-03-26T19:56:01;0.60;;;0.60;;
38779;SDS011;29273;49.962;9.768;2023-03-26T19:58:35;0.85;;;0.63;;
38779;SDS011;29273;49.962;9.768;2023-03-26T20:01:01;1.02;;;0.63;;
38779;SDS011;29273;49.962;9.768;2023-03-26T20:03:28;1.02;;;0.82;;
38779;SDS011;29273;49.962;9.768;2023-03-26T20:06:02;1.10;;;0.80;;
38779;SDS011;29273;49.962;9.768;2023-03-26T20:08:27;1.33;;;1.08;;
38779;SDS011;29273;49.962;9.768;2023-03-26T20:10:53;2.28;;;1.10;;
38779;SDS011;29273;49.962;9.768;2023-03-26T20:13:20;1.55;;;1.05;;
38779;SDS011;29273;49.962;9.768;2023-03-26T20:16:32;2.67;;;1.58;;
38779;SDS011;29273;49.962;9.768;2023-03-26T20:18:42;2.10;;;1.40;;
38779;SDS011;29273;49.962;9.768;2023-03-26T20:21:09;2.08;;;1.50;;
38779;SDS011;29273;49.962;9.768;2023-03-26T20:23:37;2.55;;;1.55;;
38779;SDS011;29273;49.962;9.768;2023-03-26T20:26:04;1.73;;;1.00;;